createdAt,value
2023-05-10T00:00:50.185Z,100441.94
2023-05-10T00:03:54.763Z,100430.53
2023-05-10T00:06:59.760Z,100439.53
2023-05-10T00:10:04.345Z,100437.06
2023-05-10T00:13:08.345Z,100435.91
2023-05-10T00:16:16.869Z,100432.28
2023-05-10T00:19:22.688Z,100436.34
2023-05-10T00:22:29.238Z,100432.38
2023-05-10T00:25:37.146Z,100438.34
2023-05-10T00:29:30.919Z,100425.56
2023-05-10T00:40:48.276Z,100417.72
2023-05-10T00:44:01.498Z,100409.69
2023-05-10T00:52:50.010Z,100411.66
2023-05-10T00:59:37.190Z,100391.78
2023-05-10T01:02:46.492Z,100396.88
2023-05-10T01:05:54.413Z,100389.16
2023-05-10T01:09:04.128Z,100387.97
2023-05-10T01:12:12.630Z,100383.13
2023-05-10T01:15:21.617Z,100385.78
2023-05-10T01:18:29.715Z,100382.41
2023-05-10T01:22:15.169Z,100388.13
2023-05-10T01:25:49.488Z,100389.00
2023-05-10T01:29:17.532Z,100375.06
2023-05-10T01:37:14.754Z,100382.88
2023-05-10T01:40:57.984Z,100378.78
2023-05-10T01:45:37.935Z,100366.84
2023-05-10T01:49:39.004Z,100376.50
2023-05-10T01:53:02.966Z,100378.91
2023-05-10T01:56:12.609Z,100373.63
2023-05-10T01:59:22.847Z,100369.31
2023-05-10T02:02:30.985Z,100368.78
2023-05-10T02:05:42.261Z,100367.53
2023-05-10T02:08:50.995Z,100374.41
2023-05-10T02:11:56.569Z,100365.44
2023-05-10T02:15:12.420Z,100363.63
2023-05-10T02:18:22.270Z,100364.97
2023-05-10T02:21:32.026Z,100361.28
2023-05-10T02:24:42.913Z,100365.38
2023-05-10T02:27:50.334Z,100367.28
2023-05-10T02:34:12.910Z,100381.41
2023-05-10T02:37:49.573Z,100374.03
2023-05-10T02:41:06.666Z,100381.38
2023-05-10T02:44:15.424Z,100367.47
2023-05-10T02:47:25.650Z,100367.06
2023-05-10T02:50:50.941Z,100365.56
2023-05-10T02:54:15.585Z,100366.75
2023-05-10T02:57:38.167Z,100371.16
2023-05-10T03:00:52.593Z,100370.38
2023-05-10T03:04:12.700Z,100359.00
2023-05-10T03:07:22.378Z,100361.53
2023-05-10T03:10:30.900Z,100357.22
2023-05-10T03:13:53.211Z,100361.94
2023-05-10T03:17:55.809Z,100360.47
2023-05-10T03:21:10.028Z,100352.97
2023-05-10T03:24:21.422Z,100355.59
2023-05-10T03:27:35.132Z,100361.28
2023-05-10T03:31:11.900Z,100357.28
2023-05-10T03:34:29.433Z,100361.88
2023-05-10T03:37:34.164Z,100354.72
2023-05-10T03:40:42.214Z,100360.19
2023-05-10T03:43:48.123Z,100367.47
2023-05-10T03:46:54.573Z,100368.78
2023-05-10T03:50:00.124Z,100372.28
2023-05-10T03:53:06.816Z,100369.53
2023-05-10T03:56:13.121Z,100369.66
2023-05-10T03:59:18.973Z,100362.88
2023-05-10T04:02:25.341Z,100364.97
2023-05-10T04:05:31.527Z,100364.97
2023-05-10T04:08:37.633Z,100358.00
2023-05-10T04:11:46.013Z,100354.63
2023-05-10T04:15:07.935Z,100358.19
2023-05-10T04:18:15.896Z,100357.16
2023-05-10T04:21:21.869Z,100352.75
2023-05-10T04:24:28.705Z,100351.72
2023-05-10T04:27:35.920Z,100356.34
2023-05-10T04:30:41.775Z,100356.34
2023-05-10T04:33:49.830Z,100343.72
2023-05-10T04:37:24.403Z,100347.09
2023-05-10T04:40:35.763Z,100357.81
2023-05-10T04:43:46.583Z,100356.69
2023-05-10T04:46:54.163Z,100349.03
2023-05-10T04:50:02.156Z,100351.34
2023-05-10T04:52:54.917Z,100348.41
2023-05-10T04:55:59.565Z,100348.00
2023-05-10T04:59:04.002Z,100346.97
2023-05-10T05:02:08.670Z,100348.44
2023-05-10T05:05:13.824Z,100356.03
2023-05-10T05:08:19.049Z,100356.88
2023-05-10T05:11:23.357Z,100358.19
2023-05-10T05:14:27.705Z,100354.38
2023-05-10T05:30:40.699Z,100348.91
2023-05-10T05:38:07.776Z,100349.44
2023-05-10T05:41:14.730Z,100348.69
2023-05-10T05:44:34.735Z,100353.75
2023-05-10T05:51:52.651Z,100375.25
2023-05-10T05:55:08.720Z,100364.84
2023-05-10T05:59:29.618Z,100377.81
2023-05-10T06:03:04.932Z,100385.53
2023-05-10T06:06:26.297Z,100363.81
2023-05-10T06:09:48.126Z,100370.25
2023-05-10T06:14:26.798Z,100369.00
2023-05-10T06:17:33.611Z,100371.78
2023-05-10T06:20:53.973Z,100365.72
2023-05-10T06:24:14.666Z,100371.53
2023-05-10T06:27:24.914Z,100360.34
2023-05-10T06:38:55.618Z,100367.53
2023-05-10T06:42:07.313Z,100375.34
2023-05-10T06:45:16.311Z,100381.84
2023-05-10T06:48:22.827Z,100379.72
2023-05-10T06:51:30.138Z,100392.00
2023-05-10T06:54:34.928Z,100377.41
2023-05-10T06:57:41.820Z,100375.72
2023-05-10T07:00:50.489Z,100377.13
2023-05-10T07:03:57.949Z,100386.25
2023-05-10T07:07:04.462Z,100393.59
2023-05-10T07:10:10.085Z,100391.88
2023-05-10T07:13:17.048Z,100393.28
2023-05-10T07:16:23.733Z,100406.81
2023-05-10T07:19:30.399Z,100390.75
2023-05-10T07:22:37.423Z,100396.25
2023-05-10T07:25:42.676Z,100406.00
2023-05-10T07:28:49.182Z,100402.31
2023-05-10T07:31:58.901Z,100405.66
2023-05-10T07:34:56.155Z,100406.88
2023-05-10T07:38:06.572Z,100409.75
2023-05-10T07:41:12.958Z,100397.91
2023-05-10T07:44:19.594Z,100400.66
2023-05-10T07:47:24.506Z,100404.50
2023-05-10T07:50:29.054Z,100409.06
2023-05-10T07:53:33.169Z,100409.88
2023-05-10T07:56:37.711Z,100400.56
2023-05-10T07:59:42.368Z,100397.31
2023-05-10T08:02:48.285Z,100410.66
2023-05-10T08:05:52.295Z,100416.69
2023-05-10T08:08:57.288Z,100408.28
2023-05-10T08:12:01.890Z,100416.03
2023-05-10T08:15:07.700Z,100422.09
2023-05-10T08:18:12.009Z,100428.81
2023-05-10T08:21:17.303Z,100431.72
2023-05-10T08:24:22.299Z,100428.13
2023-05-10T08:27:26.853Z,100431.81
2023-05-10T08:30:30.998Z,100427.84
2023-05-10T08:33:35.109Z,100429.78
2023-05-10T08:36:39.312Z,100432.78
2023-05-10T08:39:43.948Z,100432.03
2023-05-10T08:42:56.916Z,100439.25
2023-05-10T08:46:08.715Z,100454.28
2023-05-10T08:49:19.251Z,100458.72
2023-05-10T08:52:27.570Z,100466.06
2023-05-10T08:55:39.519Z,100487.31
2023-05-10T08:58:50.410Z,100483.34
2023-05-10T09:02:00.073Z,100493.88
2023-05-10T09:05:06.500Z,100501.03
2023-05-10T09:08:12.913Z,100502.13
2023-05-10T09:11:18.405Z,100510.59
2023-05-10T09:14:25.927Z,100518.78
2023-05-10T09:17:31.951Z,100540.66
2023-05-10T09:20:36.779Z,100545.41
2023-05-10T09:23:48.139Z,100549.72
2023-05-10T09:26:53.166Z,100559.03
2023-05-10T09:29:58.448Z,100563.06
2023-05-10T09:33:03.674Z,100566.00
2023-05-10T09:36:09.557Z,100579.50
2023-05-10T09:39:14.273Z,100577.47
2023-05-10T09:42:19.718Z,100585.81
2023-05-10T09:45:26.848Z,100584.75
2023-05-10T09:48:32.417Z,100594.66
2023-05-10T09:51:37.316Z,100594.84
2023-05-10T09:54:54.642Z,100594.66
2023-05-10T09:58:03.795Z,100598.88
2023-05-10T10:01:15.835Z,100595.28
2023-05-10T10:04:22.659Z,100595.50
2023-05-10T10:07:28.532Z,100599.09
2023-05-10T10:10:34.551Z,100605.63
2023-05-10T10:13:39.076Z,100607.72
2023-05-10T10:16:51.804Z,100609.19
2023-05-10T10:20:11.715Z,100623.66
2023-05-10T10:23:17.752Z,100628.59
2023-05-10T10:26:22.554Z,100642.16
2023-05-10T10:29:40.493Z,100650.53
2023-05-10T10:33:30.441Z,100654.34
2023-05-10T10:36:48.046Z,100662.97
2023-05-10T10:39:52.678Z,100665.72
2023-05-10T10:42:58.393Z,100677.78
2023-05-10T10:46:13.879Z,100688.41
2023-05-10T10:49:18.364Z,100689.97
2023-05-10T10:52:35.067Z,100692.63
2023-05-10T10:55:49.754Z,100697.88
2023-05-10T10:58:54.676Z,100704.69
2023-05-10T11:02:02.252Z,100707.88
2023-05-10T11:05:28.598Z,100714.28
2023-05-10T11:08:44.904Z,100717.28
2023-05-10T11:11:56.184Z,100720.06
2023-05-10T11:18:33.230Z,100742.09
2023-05-10T11:21:50.122Z,100746.03
2023-05-10T11:24:59.589Z,100742.78
2023-05-10T11:28:06.310Z,100752.03
2023-05-10T11:31:13.487Z,100759.06
2023-05-10T11:34:36.523Z,100768.34
2023-05-10T11:37:44.574Z,100769.75
2023-05-10T11:40:52.901Z,100770.09
2023-05-10T11:43:58.541Z,100771.56
2023-05-10T11:47:03.455Z,100781.72
2023-05-10T11:50:08.389Z,100780.16
2023-05-10T11:53:14.458Z,100778.91
2023-05-10T11:56:18.731Z,100791.34
2023-05-10T11:59:22.843Z,100798.69
2023-05-10T12:02:27.719Z,100802.47
2023-05-10T12:05:36.714Z,100803.69
2023-05-10T12:08:47.617Z,100807.25
2023-05-10T12:11:57.982Z,100810.63
2023-05-10T12:15:04.327Z,100824.56
2023-05-10T12:18:11.661Z,100809.25
2023-05-10T12:21:16.692Z,100819.78
2023-05-10T12:24:22.537Z,100823.19
2023-05-10T12:27:32.435Z,100829.19
2023-05-10T12:30:37.989Z,100829.41
2023-05-10T12:33:44.963Z,100833.69
2023-05-10T12:36:56.344Z,100834.25
2023-05-10T12:40:00.653Z,100842.06
2023-05-10T12:43:07.476Z,100849.56
2023-05-10T12:46:18.767Z,100859.09
2023-05-10T12:49:23.389Z,100857.13
2023-05-10T12:52:27.653Z,100859.47
2023-05-10T12:55:32.048Z,100863.72
2023-05-10T12:58:36.621Z,100864.28
2023-05-10T13:01:41.197Z,100865.03
2023-05-10T13:04:48.842Z,100866.03
2023-05-10T13:07:54.774Z,100871.03
2023-05-10T13:10:59.266Z,100873.19
2023-05-10T13:14:04.370Z,100876.66
2023-05-10T13:17:09.036Z,100881.56
2023-05-10T13:20:13.957Z,100887.00
2023-05-10T13:23:18.803Z,100884.06
2023-05-10T13:26:23.124Z,100884.81
2023-05-10T13:29:27.445Z,100881.47
2023-05-10T13:32:31.811Z,100883.53
2023-05-10T13:35:36.668Z,100886.56
2023-05-10T13:55:20.193Z,100895.75
2023-05-10T13:58:42.907Z,100897.13
2023-05-10T14:02:03.660Z,100896.28
2023-05-10T14:05:08.958Z,100896.94
2023-05-10T14:08:19.369Z,100903.28
2023-05-10T14:11:32.110Z,100907.94
2023-05-10T14:14:45.314Z,100904.03
2023-05-10T14:17:51.614Z,100908.16
2023-05-10T14:21:02.550Z,100906.81
2023-05-10T14:24:12.937Z,100906.28
2023-05-10T14:27:20.677Z,100908.84
2023-05-10T14:30:32.501Z,100909.69
2023-05-10T14:33:40.987Z,100905.47
2023-05-10T14:36:56.003Z,100910.34
2023-05-10T14:40:07.819Z,100908.00
2023-05-10T14:43:14.853Z,100899.53
2023-05-10T14:46:22.819Z,100900.38
2023-05-10T14:49:27.327Z,100900.56
2023-05-10T14:52:34.174Z,100902.00
2023-05-10T14:55:39.307Z,100895.69
2023-05-10T14:58:43.680Z,100900.78
2023-05-10T15:01:49.497Z,100902.88
2023-05-10T15:04:54.429Z,100907.69
2023-05-10T15:07:59.124Z,100906.66
2023-05-10T15:11:04.056Z,100911.94
2023-05-10T15:14:08.086Z,100906.25
2023-05-10T15:17:12.613Z,100905.53
2023-05-10T15:20:17.069Z,100902.53
2023-05-10T15:23:21.303Z,100911.16
2023-05-10T15:26:27.232Z,100917.91
2023-05-10T15:29:32.445Z,100915.78
2023-05-10T15:32:36.880Z,100916.09
2023-05-10T15:35:41.986Z,100922.88
2023-05-10T15:38:46.241Z,100923.06
2023-05-10T15:41:50.619Z,100925.91
2023-05-10T15:44:54.945Z,100925.50
2023-05-10T15:48:02.649Z,100937.69
2023-05-10T15:51:06.844Z,100923.38
2023-05-10T15:54:11.303Z,100931.34
2023-05-10T15:57:15.767Z,100934.59
2023-05-10T16:00:20.645Z,100941.19
2023-05-10T16:03:25.364Z,100939.28
2023-05-10T16:06:29.433Z,100944.75
2023-05-10T16:09:33.645Z,100942.19
2023-05-10T16:12:39.224Z,100942.75
2023-05-10T16:15:44.043Z,100955.22
2023-05-10T16:18:48.645Z,100960.72
2023-05-10T16:21:53.443Z,100956.84
2023-05-10T16:24:59.775Z,100956.31
2023-05-10T16:28:04.163Z,100963.19
2023-05-10T16:31:08.511Z,100967.03
2023-05-10T16:34:13.140Z,100969.78
2023-05-10T16:41:16.758Z,100987.34
2023-05-10T16:44:37.180Z,100993.28
2023-05-10T16:51:56.526Z,101012.09
2023-05-10T16:58:55.144Z,101010.22
2023-05-10T17:02:41.021Z,101010.69
2023-05-10T17:06:05.312Z,101021.34
2023-05-10T17:10:52.514Z,101037.38
2023-05-10T17:14:15.527Z,101048.50
2023-05-10T17:17:40.477Z,101050.34
2023-05-10T17:30:06.188Z,101068.63
2023-05-10T17:33:34.802Z,101074.16
2023-05-10T17:50:35.792Z,101100.59
2023-05-10T17:53:45.577Z,101122.81
2023-05-10T18:00:19.462Z,101130.91
2023-05-10T18:03:24.530Z,101140.78
2023-05-10T18:06:28.720Z,101140.75
2023-05-10T18:09:34.081Z,101134.53
2023-05-10T18:12:38.254Z,101144.22
2023-05-10T18:15:42.891Z,101142.69
2023-05-10T18:18:47.196Z,101147.44
2023-05-10T18:21:54.392Z,101154.63
2023-05-10T18:24:58.414Z,101160.69
2023-05-10T18:31:32.890Z,101164.41
2023-05-10T18:35:43.591Z,101169.66
2023-05-10T18:44:53.346Z,101184.25
2023-05-10T18:53:08.476Z,101193.09
2023-05-10T18:57:29.505Z,101186.28
2023-05-10T19:00:51.348Z,101201.22
2023-05-10T19:12:12.501Z,101201.53
2023-05-10T19:19:42.742Z,101215.41
2023-05-10T19:23:10.113Z,101221.44
2023-05-10T19:26:53.667Z,101224.22
2023-05-10T19:30:56.605Z,101228.66
2023-05-10T19:39:26.889Z,101236.94
2023-05-10T19:43:14.004Z,101242.34
2023-05-10T20:27:23.759Z,101272.53
2023-05-10T20:30:29.413Z,101269.84
2023-05-10T20:33:36.114Z,101272.53
2023-05-10T20:36:42.600Z,101279.53
2023-05-10T20:39:49.812Z,101277.00
2023-05-10T20:42:55.107Z,101284.09
2023-05-10T20:49:10.403Z,101281.31
2023-05-10T20:52:14.806Z,101287.69
2023-05-10T20:55:19.853Z,101280.06
2023-05-10T20:58:24.055Z,101276.59
2023-05-10T21:01:28.236Z,101284.63
2023-05-10T21:04:32.648Z,101282.97
2023-05-10T21:07:37.768Z,101290.03
2023-05-10T21:10:42.225Z,101284.78
2023-05-10T21:13:46.552Z,101288.25
2023-05-10T21:16:51.328Z,101288.09
2023-05-10T21:19:55.810Z,101292.44
2023-05-10T21:23:00.032Z,101287.19
2023-05-10T21:26:05.432Z,101295.84
2023-05-10T21:29:09.811Z,101291.72
2023-05-10T21:32:14.968Z,101296.00
2023-05-10T21:35:19.206Z,101293.50
2023-05-10T21:38:23.520Z,101292.75
2023-05-10T21:41:28.903Z,101294.59
2023-05-10T21:44:33.425Z,101289.47
2023-05-10T21:47:37.990Z,101287.75
2023-05-10T21:50:43.745Z,101297.22
2023-05-10T21:53:48.247Z,101302.50
2023-05-10T21:56:52.812Z,101300.00
2023-05-10T21:59:57.303Z,101296.56
2023-05-10T22:03:02.608Z,101300.16
2023-05-10T22:06:08.409Z,101298.72
2023-05-10T22:09:12.410Z,101298.44
2023-05-10T22:12:16.934Z,101298.56
2023-05-10T22:15:21.380Z,101302.00
2023-05-10T22:18:25.719Z,101302.84
2023-05-10T22:21:30.645Z,101305.81
2023-05-10T22:24:35.270Z,101302.41
2023-05-10T22:27:39.349Z,101303.41
2023-05-10T22:30:43.810Z,101305.25
2023-05-10T22:33:47.977Z,101306.09
2023-05-10T22:36:52.542Z,101305.31
2023-05-10T22:39:56.605Z,101307.47
2023-05-10T22:43:01.111Z,101292.91
2023-05-10T22:46:05.408Z,101303.41
2023-05-10T22:49:09.800Z,101305.25
2023-05-10T22:52:13.994Z,101299.00
2023-05-10T22:55:17.916Z,101306.97
2023-05-10T22:58:22.276Z,101303.56
2023-05-10T23:01:26.652Z,101302.63
2023-05-10T23:04:31.582Z,101305.09
2023-05-10T23:07:35.857Z,101309.66
2023-05-10T23:10:39.874Z,101315.63
2023-05-10T23:13:43.892Z,101314.78
2023-05-10T23:16:48.394Z,101312.22
2023-05-10T23:19:52.780Z,101321.91
2023-05-10T23:22:57.276Z,101321.09
2023-05-10T23:26:02.277Z,101318.59
2023-05-10T23:29:06.569Z,101316.78
2023-05-10T23:32:11.130Z,101321.03
2023-05-10T23:35:15.986Z,101322.88
2023-05-10T23:38:21.268Z,101324.47
2023-05-10T23:41:33.770Z,101326.16
2023-05-10T23:44:39.804Z,101328.00
2023-05-10T23:47:46.446Z,101323.72
2023-05-10T23:50:52.523Z,101324.72
2023-05-10T23:53:58.437Z,101330.81
2023-05-10T23:57:03.734Z,101334.16
